sensor_id;sensor_type;location;lat;lon;timestamp;temperature;humidity
2030;DHT22;1020;48.854;8.830;2022-08-04T00:00:54;23.30;99.90
2030;DHT22;1020;48.854;8.830;2022-08-04T00:03:30;23.30;99.90
2030;DHT22;1020;48.854;8.830;2022-08-04T00:06:03;23.30;99.90
2030;DHT22;1020;48.854;8.830;2022-08-04T00:08:39;23.20;99.90
2030;DHT22;1020;48.854;8.830;2022-08-04T00:11:09;23.20;99.90
2030;DHT22;1020;48.854;8.830;2022-08-04T00:13:38;23.20;99.90
2030;DHT22;1020;48.854;8.830;2022-08-04T00:16:06;23.20;99.90
2030;DHT22;1020;48.854;8.830;2022-08-04T00:18:39;23.20;99.90
2030;DHT22;1020;48.854;8.830;2022-08-04T00:21:11;23.20;99.90
2030;DHT22;1020;48.854;8.830;2022-08-04T00:23:39;23.20;99.90
2030;DHT22;1020;48.854;8.830;2022-08-04T00:26:08;23.20;99.90
2030;DHT22;1020;48.854;8.830;2022-08-04T00:28:36;23.20;99.90
2030;DHT22;1020;48.854;8.830;2022-08-04T00:31:04;23.20;99.90
2030;DHT22;1020;48.854;8.830;2022-08-04T00:33:31;23.20;99.90
2030;DHT22;1020;48.854;8.830;2022-08-04T00:35:59;23.20;99.90
2030;DHT22;1020;48.854;8.830;2022-08-04T00:38:28;23.20;99.90
2030;DHT22;1020;48.854;8.830;2022-08-04T00:41:02;23.10;99.90
2030;DHT22;1020;48.854;8.830;2022-08-04T00:43:40;23.20;99.90
2030;DHT22;1020;48.854;8.830;2022-08-04T00:46:29;23.20;99.90
2030;DHT22;1020;48.854;8.830;2022-08-04T00:49:21;23.10;99.90
2030;DHT22;1020;48.854;8.830;2022-08-04T00:51:59;23.10;99.90
2030;DHT22;1020;48.854;8.830;2022-08-04T00:54:37;23.10;99.90
2030;DHT22;1020;48.854;8.830;2022-08-04T00:57:24;23.00;99.90
2030;DHT22;1020;48.854;8.830;2022-08-04T01:00:03;23.00;99.90
2030;DHT22;1020;48.854;8.830;2022-08-04T01:02:36;22.90;99.90
2030;DHT22;1020;48.854;8.830;2022-08-04T01:05:06;22.90;99.90
2030;DHT22;1020;48.854;8.830;2022-08-04T01:07:56;22.80;99.90
2030;DHT22;1020;48.854;8.830;2022-08-04T01:10:39;22.80;99.90
2030;DHT22;1020;48.854;8.830;2022-08-04T01:13:32;22.80;99.90
2030;DHT22;1020;48.854;8.830;2022-08-04T01:16:03;22.70;99.90
2030;DHT22;1020;48.854;8.830;2022-08-04T01:18:37;22.80;99.90
2030;DHT22;1020;48.854;8.830;2022-08-04T01:24:28;22.80;99.90
2030;DHT22;1020;48.854;8.830;2022-08-04T01:27:01;22.80;99.90
2030;DHT22;1020;48.854;8.830;2022-08-04T01:29:34;22.70;99.90
2030;DHT22;1020;48.854;8.830;2022-08-04T01:32:03;22.70;99.90
2030;DHT22;1020;48.854;8.830;2022-08-04T01:34:35;22.70;99.90
2030;DHT22;1020;48.854;8.830;2022-08-04T01:37:10;22.60;99.90
2030;DHT22;1020;48.854;8.830;2022-08-04T01:39:49;22.60;99.90
2030;DHT22;1020;48.854;8.830;2022-08-04T01:42:17;22.30;99.90
2030;DHT22;1020;48.854;8.830;2022-08-04T01:44:47;22.20;99.90
2030;DHT22;1020;48.854;8.830;2022-08-04T01:47:18;22.10;99.90
2030;DHT22;1020;48.854;8.830;2022-08-04T01:49:48;22.10;99.90
2030;DHT22;1020;48.854;8.830;2022-08-04T01:52:16;22.10;99.90
2030;DHT22;1020;48.854;8.830;2022-08-04T01:54:46;22.10;99.90
2030;DHT22;1020;48.854;8.830;2022-08-04T01:57:14;22.10;99.90
2030;DHT22;1020;48.854;8.830;2022-08-04T01:59:46;22.10;99.90
2030;DHT22;1020;48.854;8.830;2022-08-04T02:02:13;22.10;99.90
2030;DHT22;1020;48.854;8.830;2022-08-04T02:04:41;22.20;99.90
2030;DHT22;1020;48.854;8.830;2022-08-04T02:07:17;22.20;99.90
2030;DHT22;1020;48.854;8.830;2022-08-04T02:09:52;22.30;99.90
2030;DHT22;1020;48.854;8.830;2022-08-04T02:12:29;22.30;99.90
2030;DHT22;1020;48.854;8.830;2022-08-04T02:15:10;22.40;99.90
2030;DHT22;1020;48.854;8.830;2022-08-04T02:17:45;22.40;99.90
2030;DHT22;1020;48.854;8.830;2022-08-04T02:20:21;22.40;99.90
2030;DHT22;1020;48.854;8.830;2022-08-04T02:22:53;22.40;99.90
2030;DHT22;1020;48.854;8.830;2022-08-04T02:25:24;22.50;99.90
2030;DHT22;1020;48.854;8.830;2022-08-04T02:27:56;22.40;99.90
2030;DHT22;1020;48.854;8.830;2022-08-04T02:30:30;22.40;99.90
2030;DHT22;1020;48.854;8.830;2022-08-04T02:33:02;22.40;99.90
2030;DHT22;1020;48.854;8.830;2022-08-04T02:35:35;22.40;99.90
2030;DHT22;1020;48.854;8.830;2022-08-04T02:38:11;22.40;99.90
2030;DHT22;1020;48.854;8.830;2022-08-04T02:40:42;22.40;99.90
2030;DHT22;1020;48.854;8.830;2022-08-04T02:43:09;22.40;99.90
2030;DHT22;1020;48.854;8.830;2022-08-04T02:45:40;22.30;99.90
2030;DHT22;1020;48.854;8.830;2022-08-04T02:48:09;22.20;99.90
2030;DHT22;1020;48.854;8.830;2022-08-04T02:50:38;22.20;99.90
2030;DHT22;1020;48.854;8.830;2022-08-04T02:53:08;22.30;99.90
2030;DHT22;1020;48.854;8.830;2022-08-04T02:55:39;22.30;99.90
2030;DHT22;1020;48.854;8.830;2022-08-04T02:58:07;22.40;99.90
2030;DHT22;1020;48.854;8.830;2022-08-04T03:00:37;22.40;99.90
2030;DHT22;1020;48.854;8.830;2022-08-04T03:03:13;22.30;99.90
2030;DHT22;1020;48.854;8.830;2022-08-04T03:05:54;22.30;99.90
2030;DHT22;1020;48.854;8.830;2022-08-04T03:08:45;22.10;99.90
2030;DHT22;1020;48.854;8.830;2022-08-04T03:11:33;22.00;99.90
2030;DHT22;1020;48.854;8.830;2022-08-04T03:14:45;21.90;99.90
2030;DHT22;1020;48.854;8.830;2022-08-04T03:17:38;21.80;99.90
2030;DHT22;1020;48.854;8.830;2022-08-04T03:20:36;21.70;99.90
2030;DHT22;1020;48.854;8.830;2022-08-04T03:23:28;21.70;99.90
2030;DHT22;1020;48.854;8.830;2022-08-04T03:26:32;21.60;99.90
2030;DHT22;1020;48.854;8.830;2022-08-04T03:32:43;21.40;99.90
2030;DHT22;1020;48.854;8.830;2022-08-04T03:35:40;21.30;99.90
2030;DHT22;1020;48.854;8.830;2022-08-04T03:38:41;21.20;99.90
2030;DHT22;1020;48.854;8.830;2022-08-04T03:41:35;21.10;99.90
2030;DHT22;1020;48.854;8.830;2022-08-04T03:44:43;21.00;99.90
2030;DHT22;1020;48.854;8.830;2022-08-04T03:47:34;21.00;99.90
2030;DHT22;1020;48.854;8.830;2022-08-04T03:50:41;21.00;99.90
2030;DHT22;1020;48.854;8.830;2022-08-04T03:53:30;21.00;99.90
2030;DHT22;1020;48.854;8.830;2022-08-04T04:02:11;21.10;99.90
2030;DHT22;1020;48.854;8.830;2022-08-04T04:04:57;21.10;99.90
2030;DHT22;1020;48.854;8.830;2022-08-04T04:07:46;21.20;99.90
2030;DHT22;1020;48.854;8.830;2022-08-04T04:10:28;21.30;99.90
2030;DHT22;1020;48.854;8.830;2022-08-04T04:13:09;21.30;99.90
2030;DHT22;1020;48.854;8.830;2022-08-04T04:16:05;21.30;99.90
2030;DHT22;1020;48.854;8.830;2022-08-04T04:18:51;21.30;99.90
2030;DHT22;1020;48.854;8.830;2022-08-04T04:21:28;21.40;99.90
2030;DHT22;1020;48.854;8.830;2022-08-04T04:24:20;21.40;99.90
2030;DHT22;1020;48.854;8.830;2022-08-04T04:26:56;21.40;99.90
2030;DHT22;1020;48.854;8.830;2022-08-04T04:29:49;21.50;99.90
2030;DHT22;1020;48.854;8.830;2022-08-04T04:32:22;21.50;99.90
2030;DHT22;1020;48.854;8.830;2022-08-04T04:35:13;21.60;99.90
2030;DHT22;1020;48.854;8.830;2022-08-04T04:37:54;21.70;99.90
2030;DHT22;1020;48.854;8.830;2022-08-04T04:40:32;21.80;99.90
2030;DHT22;1020;48.854;8.830;2022-08-04T04:46:17;22.00;99.90
2030;DHT22;1020;48.854;8.830;2022-08-04T04:48:53;22.20;99.90
2030;DHT22;1020;48.854;8.830;2022-08-04T04:51:27;22.30;99.90
2030;DHT22;1020;48.854;8.830;2022-08-04T04:54:04;22.40;99.90
2030;DHT22;1020;48.854;8.830;2022-08-04T04:56:37;22.50;99.90
2030;DHT22;1020;48.854;8.830;2022-08-04T04:59:09;22.70;99.90
2030;DHT22;1020;48.854;8.830;2022-08-04T05:02:19;22.80;99.90
2030;DHT22;1020;48.854;8.830;2022-08-04T05:05:10;22.90;99.90
2030;DHT22;1020;48.854;8.830;2022-08-04T05:08:08;23.00;99.90
2030;DHT22;1020;48.854;8.830;2022-08-04T05:10:50;23.20;99.90
2030;DHT22;1020;48.854;8.830;2022-08-04T05:13:33;23.30;99.90
2030;DHT22;1020;48.854;8.830;2022-08-04T05:16:06;23.40;99.90
2030;DHT22;1020;48.854;8.830;2022-08-04T05:18:37;23.50;99.90
2030;DHT22;1020;48.854;8.830;2022-08-04T05:21:24;23.60;99.90
2030;DHT22;1020;48.854;8.830;2022-08-04T05:23:57;23.70;99.90
2030;DHT22;1020;48.854;8.830;2022-08-04T05:26:30;23.80;99.90
2030;DHT22;1020;48.854;8.830;2022-08-04T05:29:02;23.90;99.90
2030;DHT22;1020;48.854;8.830;2022-08-04T05:31:33;24.00;99.90
2030;DHT22;1020;48.854;8.830;2022-08-04T05:34:03;24.10;99.90
2030;DHT22;1020;48.854;8.830;2022-08-04T05:36:35;24.20;99.90
2030;DHT22;1020;48.854;8.830;2022-08-04T05:39:05;24.30;99.90
2030;DHT22;1020;48.854;8.830;2022-08-04T05:41:33;24.40;99.90
2030;DHT22;1020;48.854;8.830;2022-08-04T05:44:03;24.50;99.90
2030;DHT22;1020;48.854;8.830;2022-08-04T05:46:30;24.60;99.90
2030;DHT22;1020;48.854;8.830;2022-08-04T05:48:57;24.70;99.90
2030;DHT22;1020;48.854;8.830;2022-08-04T05:51:25;24.80;99.90
2030;DHT22;1020;48.854;8.830;2022-08-04T05:53:53;24.80;99.90
2030;DHT22;1020;48.854;8.830;2022-08-04T05:56:20;24.80;99.90
2030;DHT22;1020;48.854;8.830;2022-08-04T05:58:47;24.90;99.90
2030;DHT22;1020;48.854;8.830;2022-08-04T06:01:17;23.70;99.90
2030;DHT22;1020;48.854;8.830;2022-08-04T06:03:45;25.10;99.90
2030;DHT22;1020;48.854;8.830;2022-08-04T06:06:16;25.20;99.90
2030;DHT22;1020;48.854;8.830;2022-08-04T06:08:44;25.30;99.90
2030;DHT22;1020;48.854;8.830;2022-08-04T06:11:11;25.40;99.90
2030;DHT22;1020;48.854;8.830;2022-08-04T06:13:43;25.50;99.90
2030;DHT22;1020;48.854;8.830;2022-08-04T06:16:12;25.80;99.90
2030;DHT22;1020;48.854;8.830;2022-08-04T06:18:42;25.90;99.90
2030;DHT22;1020;48.854;8.830;2022-08-04T06:21:11;26.00;99.90
2030;DHT22;1020;48.854;8.830;2022-08-04T06:23:40;26.10;99.90
2030;DHT22;1020;48.854;8.830;2022-08-04T06:26:09;26.10;99.90
2030;DHT22;1020;48.854;8.830;2022-08-04T06:28:40;26.30;99.90
2030;DHT22;1020;48.854;8.830;2022-08-04T06:31:08;26.40;99.90
2030;DHT22;1020;48.854;8.830;2022-08-04T06:33:36;26.50;99.90
2030;DHT22;1020;48.854;8.830;2022-08-04T06:36:06;26.60;99.90
2030;DHT22;1020;48.854;8.830;2022-08-04T06:38:34;26.80;99.90
2030;DHT22;1020;48.854;8.830;2022-08-04T06:41:02;26.90;99.90
2030;DHT22;1020;48.854;8.830;2022-08-04T06:43:34;27.10;99.90
2030;DHT22;1020;48.854;8.830;2022-08-04T06:46:03;27.20;99.90
2030;DHT22;1020;48.854;8.830;2022-08-04T06:48:31;27.10;99.90
2030;DHT22;1020;48.854;8.830;2022-08-04T06:50:59;27.20;99.90
2030;DHT22;1020;48.854;8.830;2022-08-04T06:53:27;27.40;99.90
2030;DHT22;1020;48.854;8.830;2022-08-04T06:55:55;27.50;99.90
2030;DHT22;1020;48.854;8.830;2022-08-04T06:58:23;27.60;99.90
2030;DHT22;1020;48.854;8.830;2022-08-04T07:00:51;27.70;99.90
2030;DHT22;1020;48.854;8.830;2022-08-04T07:03:18;27.80;99.90
2030;DHT22;1020;48.854;8.830;2022-08-04T07:05:46;28.10;99.90
2030;DHT22;1020;48.854;8.830;2022-08-04T07:08:13;28.30;99.90
2030;DHT22;1020;48.854;8.830;2022-08-04T07:10:43;28.50;99.90
2030;DHT22;1020;48.854;8.830;2022-08-04T07:13:11;28.50;99.90
2030;DHT22;1020;48.854;8.830;2022-08-04T07:15:40;28.70;99.90
2030;DHT22;1020;48.854;8.830;2022-08-04T07:18:09;29.00;99.90
2030;DHT22;1020;48.854;8.830;2022-08-04T07:20:39;29.30;99.90
2030;DHT22;1020;48.854;8.830;2022-08-04T07:23:07;29.50;99.90
2030;DHT22;1020;48.854;8.830;2022-08-04T07:25:36;29.60;99.90
2030;DHT22;1020;48.854;8.830;2022-08-04T07:28:04;29.70;99.90
2030;DHT22;1020;48.854;8.830;2022-08-04T07:30:32;30.10;99.90
2030;DHT22;1020;48.854;8.830;2022-08-04T07:33:00;30.80;99.90
2030;DHT22;1020;48.854;8.830;2022-08-04T07:35:28;31.10;99.90
2030;DHT22;1020;48.854;8.830;2022-08-04T07:37:55;31.70;99.90
2030;DHT22;1020;48.854;8.830;2022-08-04T07:40:22;32.20;99.90
2030;DHT22;1020;48.854;8.830;2022-08-04T07:42:48;32.90;99.90
2030;DHT22;1020;48.854;8.830;2022-08-04T07:45:18;33.40;99.90
2030;DHT22;1020;48.854;8.830;2022-08-04T07:47:46;33.90;99.90
2030;DHT22;1020;48.854;8.830;2022-08-04T07:50:13;34.30;99.90
2030;DHT22;1020;48.854;8.830;2022-08-04T07:52:41;34.00;99.90
2030;DHT22;1020;48.854;8.830;2022-08-04T07:55:08;34.50;99.90
2030;DHT22;1020;48.854;8.830;2022-08-04T07:57:35;34.40;99.90
2030;DHT22;1020;48.854;8.830;2022-08-04T08:00:03;34.50;99.90
2030;DHT22;1020;48.854;8.830;2022-08-04T08:02:32;34.70;99.90
2030;DHT22;1020;48.854;8.830;2022-08-04T08:05:00;35.50;99.90
2030;DHT22;1020;48.854;8.830;2022-08-04T08:07:27;35.20;99.90
2030;DHT22;1020;48.854;8.830;2022-08-04T08:09:54;35.20;99.90
2030;DHT22;1020;48.854;8.830;2022-08-04T08:12:21;36.40;99.90
2030;DHT22;1020;48.854;8.830;2022-08-04T08:14:48;37.20;99.90
2030;DHT22;1020;48.854;8.830;2022-08-04T08:17:15;38.50;99.90
2030;DHT22;1020;48.854;8.830;2022-08-04T08:19:43;38.80;99.90
2030;DHT22;1020;48.854;8.830;2022-08-04T08:22:10;38.40;99.90
2030;DHT22;1020;48.854;8.830;2022-08-04T08:24:37;38.10;99.90
2030;DHT22;1020;48.854;8.830;2022-08-04T08:32:15;39.20;99.90
2030;DHT22;1020;48.854;8.830;2022-08-04T08:34:43;38.90;99.90
2030;DHT22;1020;48.854;8.830;2022-08-04T08:37:14;39.50;99.90
2030;DHT22;1020;48.854;8.830;2022-08-04T08:42:46;42.40;99.90
2030;DHT22;1020;48.854;8.830;2022-08-04T08:45:51;43.30;99.90
2030;DHT22;1020;48.854;8.830;2022-08-04T08:48:43;44.40;99.90
2030;DHT22;1020;48.854;8.830;2022-08-04T08:54:28;42.20;99.90
2030;DHT22;1020;48.854;8.830;2022-08-04T08:57:10;43.20;99.90
2030;DHT22;1020;48.854;8.830;2022-08-04T08:59:47;44.40;99.90
2030;DHT22;1020;48.854;8.830;2022-08-04T09:02:49;44.70;99.90
2030;DHT22;1020;48.854;8.830;2022-08-04T09:05:42;43.50;99.90
2030;DHT22;1020;48.854;8.830;2022-08-04T09:11:23;43.70;99.90
2030;DHT22;1020;48.854;8.830;2022-08-04T09:13:54;44.00;99.90
2030;DHT22;1020;48.854;8.830;2022-08-04T09:16:30;44.60;99.90
2030;DHT22;1020;48.854;8.830;2022-08-04T09:19:05;44.00;99.90
2030;DHT22;1020;48.854;8.830;2022-08-04T09:21:38;44.70;99.90
2030;DHT22;1020;48.854;8.830;2022-08-04T09:24:13;44.80;99.90
2030;DHT22;1020;48.854;8.830;2022-08-04T09:26:47;45.60;99.90
2030;DHT22;1020;48.854;8.830;2022-08-04T09:29:19;46.10;99.90
2030;DHT22;1020;48.854;8.830;2022-08-04T09:31:56;46.70;99.90
2030;DHT22;1020;48.854;8.830;2022-08-04T09:34:33;46.50;99.90
2030;DHT22;1020;48.854;8.830;2022-08-04T09:37:06;46.70;99.90
2030;DHT22;1020;48.854;8.830;2022-08-04T09:39:47;47.10;99.90
2030;DHT22;1020;48.854;8.830;2022-08-04T09:42:21;46.80;99.90
2030;DHT22;1020;48.854;8.830;2022-08-04T09:44:58;47.10;99.90
2030;DHT22;1020;48.854;8.830;2022-08-04T09:47:34;47.00;99.90
2030;DHT22;1020;48.854;8.830;2022-08-04T09:50:10;47.00;99.90
2030;DHT22;1020;48.854;8.830;2022-08-04T09:52:45;46.70;99.90
2030;DHT22;1020;48.854;8.830;2022-08-04T09:55:21;45.80;99.90
2030;DHT22;1020;48.854;8.830;2022-08-04T09:57:59;44.00;99.90
2030;DHT22;1020;48.854;8.830;2022-08-04T10:00:33;42.40;99.90
2030;DHT22;1020;48.854;8.830;2022-08-04T10:03:00;42.00;99.90
2030;DHT22;1020;48.854;8.830;2022-08-04T10:05:41;41.70;99.90
2030;DHT22;1020;48.854;8.830;2022-08-04T10:08:22;41.60;99.90
2030;DHT22;1020;48.854;8.830;2022-08-04T10:11:02;42.10;99.90
2030;DHT22;1020;48.854;8.830;2022-08-04T10:13:41;42.30;99.90
2030;DHT22;1020;48.854;8.830;2022-08-04T10:16:29;42.80;99.90
2030;DHT22;1020;48.854;8.830;2022-08-04T10:19:08;43.40;99.90
2030;DHT22;1020;48.854;8.830;2022-08-04T10:21:49;42.80;99.90
2030;DHT22;1020;48.854;8.830;2022-08-04T10:24:29;42.60;99.90
2030;DHT22;1020;48.854;8.830;2022-08-04T10:27:04;43.10;99.90
2030;DHT22;1020;48.854;8.830;2022-08-04T10:29:40;43.70;99.90
2030;DHT22;1020;48.854;8.830;2022-08-04T10:32:13;43.40;99.90
2030;DHT22;1020;48.854;8.830;2022-08-04T10:34:46;43.40;99.90
2030;DHT22;1020;48.854;8.830;2022-08-04T10:37:20;44.30;99.90
2030;DHT22;1020;48.854;8.830;2022-08-04T10:39:53;44.90;99.90
2030;DHT22;1020;48.854;8.830;2022-08-04T10:42:46;44.80;99.90
2030;DHT22;1020;48.854;8.830;2022-08-04T10:45:18;45.20;99.90
2030;DHT22;1020;48.854;8.830;2022-08-04T10:47:55;45.70;99.90
2030;DHT22;1020;48.854;8.830;2022-08-04T10:50:25;45.70;99.90
2030;DHT22;1020;48.854;8.830;2022-08-04T10:52:58;45.30;99.90
2030;DHT22;1020;48.854;8.830;2022-08-04T10:55:32;45.00;99.90
2030;DHT22;1020;48.854;8.830;2022-08-04T10:58:04;45.20;99.90
2030;DHT22;1020;48.854;8.830;2022-08-04T11:00:35;45.10;99.90
2030;DHT22;1020;48.854;8.830;2022-08-04T11:03:06;46.20;99.90
2030;DHT22;1020;48.854;8.830;2022-08-04T11:05:38;45.70;99.90
2030;DHT22;1020;48.854;8.830;2022-08-04T11:08:10;45.90;99.90
2030;DHT22;1020;48.854;8.830;2022-08-04T11:13:15;46.00;99.90
2030;DHT22;1020;48.854;8.830;2022-08-04T11:15:47;47.10;99.90
2030;DHT22;1020;48.854;8.830;2022-08-04T11:18:22;47.10;99.90
2030;DHT22;1020;48.854;8.830;2022-08-04T11:20:54;47.40;99.90
2030;DHT22;1020;48.854;8.830;2022-08-04T11:23:25;47.30;99.90
2030;DHT22;1020;48.854;8.830;2022-08-04T11:25:58;46.50;99.90
2030;DHT22;1020;48.854;8.830;2022-08-04T11:28:36;44.50;99.90
2030;DHT22;1020;48.854;8.830;2022-08-04T11:31:06;44.20;99.90
2030;DHT22;1020;48.854;8.830;2022-08-04T11:33:40;43.10;99.90
2030;DHT22;1020;48.854;8.830;2022-08-04T11:36:31;41.40;99.90
2030;DHT22;1020;48.854;8.830;2022-08-04T11:39:05;41.30;99.90
2030;DHT22;1020;48.854;8.830;2022-08-04T11:41:52;42.10;99.90
2030;DHT22;1020;48.854;8.830;2022-08-04T11:44:29;42.90;99.90
2030;DHT22;1020;48.854;8.830;2022-08-04T11:47:01;44.40;99.90
2030;DHT22;1020;48.854;8.830;2022-08-04T11:49:32;45.80;99.90
2030;DHT22;1020;48.854;8.830;2022-08-04T11:52:02;44.70;99.90
2030;DHT22;1020;48.854;8.830;2022-08-04T11:54:33;44.60;99.90
2030;DHT22;1020;48.854;8.830;2022-08-04T11:57:00;46.00;99.90
2030;DHT22;1020;48.854;8.830;2022-08-04T11:59:32;44.40;99.90
2030;DHT22;1020;48.854;8.830;2022-08-04T12:02:10;44.20;99.90
2030;DHT22;1020;48.854;8.830;2022-08-04T12:04:53;43.60;99.90
2030;DHT22;1020;48.854;8.830;2022-08-04T12:07:29;42.60;99.90
2030;DHT22;1020;48.854;8.830;2022-08-04T12:10:08;42.20;99.90
2030;DHT22;1020;48.854;8.830;2022-08-04T12:12:42;43.40;99.90
2030;DHT22;1020;48.854;8.830;2022-08-04T12:15:19;44.30;99.90
2030;DHT22;1020;48.854;8.830;2022-08-04T12:17:53;45.50;99.90
2030;DHT22;1020;48.854;8.830;2022-08-04T12:20:25;45.90;99.90
2030;DHT22;1020;48.854;8.830;2022-08-04T12:22:53;45.90;99.90
2030;DHT22;1020;48.854;8.830;2022-08-04T12:25:25;45.20;99.90
2030;DHT22;1020;48.854;8.830;2022-08-04T12:27:57;44.60;99.90
2030;DHT22;1020;48.854;8.830;2022-08-04T12:30:28;45.20;99.90
2030;DHT22;1020;48.854;8.830;2022-08-04T12:33:04;44.00;99.90
2030;DHT22;1020;48.854;8.830;2022-08-04T12:35:37;43.30;99.90
2030;DHT22;1020;48.854;8.830;2022-08-04T12:38:07;43.40;99.90
2030;DHT22;1020;48.854;8.830;2022-08-04T12:40:38;44.50;99.90
2030;DHT22;1020;48.854;8.830;2022-08-04T12:43:10;44.30;99.90
2030;DHT22;1020;48.854;8.830;2022-08-04T12:45:43;44.60;99.90
2030;DHT22;1020;48.854;8.830;2022-08-04T12:48:10;44.30;99.90
2030;DHT22;1020;48.854;8.830;2022-08-04T12:50:38;43.30;99.90
2030;DHT22;1020;48.854;8.830;2022-08-04T12:53:11;43.60;99.90
2030;DHT22;1020;48.854;8.830;2022-08-04T12:55:44;44.00;99.90
2030;DHT22;1020;48.854;8.830;2022-08-04T12:58:15;44.30;99.90
2030;DHT22;1020;48.854;8.830;2022-08-04T13:00:51;44.80;99.90
2030;DHT22;1020;48.854;8.830;2022-08-04T13:03:19;44.40;99.90
2030;DHT22;1020;48.854;8.830;2022-08-04T13:05:52;42.70;99.90
2030;DHT22;1020;48.854;8.830;2022-08-04T13:08:21;42.50;99.90
2030;DHT22;1020;48.854;8.830;2022-08-04T13:10:51;43.50;99.90
2030;DHT22;1020;48.854;8.830;2022-08-04T13:13:19;44.30;99.90
2030;DHT22;1020;48.854;8.830;2022-08-04T13:15:59;44.50;99.90
2030;DHT22;1020;48.854;8.830;2022-08-04T13:18:28;45.70;99.90
2030;DHT22;1020;48.854;8.830;2022-08-04T13:20:56;45.70;99.90
2030;DHT22;1020;48.854;8.830;2022-08-04T13:23:24;45.60;99.90
2030;DHT22;1020;48.854;8.830;2022-08-04T13:25:55;44.70;99.90
2030;DHT22;1020;48.854;8.830;2022-08-04T13:28:24;45.20;99.90
2030;DHT22;1020;48.854;8.830;2022-08-04T13:30:54;45.60;99.90
2030;DHT22;1020;48.854;8.830;2022-08-04T13:33:27;45.30;99.90
2030;DHT22;1020;48.854;8.830;2022-08-04T13:35:56;45.20;99.90
2030;DHT22;1020;48.854;8.830;2022-08-04T13:38:24;45.20;99.90
2030;DHT22;1020;48.854;8.830;2022-08-04T13:40:51;45.20;99.90
2030;DHT22;1020;48.854;8.830;2022-08-04T13:43:23;45.00;99.90
2030;DHT22;1020;48.854;8.830;2022-08-04T13:45:52;45.20;99.90
2030;DHT22;1020;48.854;8.830;2022-08-04T13:48:30;45.60;99.90
2030;DHT22;1020;48.854;8.830;2022-08-04T13:51:00;45.60;99.90
2030;DHT22;1020;48.854;8.830;2022-08-04T13:53:30;44.90;99.90
2030;DHT22;1020;48.854;8.830;2022-08-04T13:55:58;41.80;99.90
2030;DHT22;1020;48.854;8.830;2022-08-04T13:58:29;43.50;99.90
2030;DHT22;1020;48.854;8.830;2022-08-04T14:00:59;43.20;99.90
2030;DHT22;1020;48.854;8.830;2022-08-04T14:03:37;42.80;99.90
2030;DHT22;1020;48.854;8.830;2022-08-04T14:06:12;42.80;99.90
2030;DHT22;1020;48.854;8.830;2022-08-04T14:08:48;43.00;99.90
2030;DHT22;1020;48.854;8.830;2022-08-04T14:11:18;41.90;99.90
2030;DHT22;1020;48.854;8.830;2022-08-04T14:13:45;42.30;99.90
2030;DHT22;1020;48.854;8.830;2022-08-04T14:16:17;41.70;99.90
2030;DHT22;1020;48.854;8.830;2022-08-04T14:18:46;42.10;99.90
2030;DHT22;1020;48.854;8.830;2022-08-04T14:21:14;42.50;99.90
2030;DHT22;1020;48.854;8.830;2022-08-04T14:23:49;41.30;99.90
2030;DHT22;1020;48.854;8.830;2022-08-04T14:26:27;40.60;99.90
2030;DHT22;1020;48.854;8.830;2022-08-04T14:28:55;40.30;99.90
2030;DHT22;1020;48.854;8.830;2022-08-04T14:31:32;38.70;99.90
2030;DHT22;1020;48.854;8.830;2022-08-04T14:34:00;38.70;99.90
2030;DHT22;1020;48.854;8.830;2022-08-04T14:36:27;39.00;99.90
2030;DHT22;1020;48.854;8.830;2022-08-04T14:39:04;39.00;99.90
2030;DHT22;1020;48.854;8.830;2022-08-04T14:41:44;38.80;99.90
2030;DHT22;1020;48.854;8.830;2022-08-04T14:44:11;39.10;99.90
2030;DHT22;1020;48.854;8.830;2022-08-04T14:46:49;39.30;99.90
2030;DHT22;1020;48.854;8.830;2022-08-04T14:49:18;39.40;99.90
2030;DHT22;1020;48.854;8.830;2022-08-04T14:51:50;39.70;99.90
2030;DHT22;1020;48.854;8.830;2022-08-04T14:54:26;39.40;99.90
2030;DHT22;1020;48.854;8.830;2022-08-04T14:56:55;39.70;99.90
2030;DHT22;1020;48.854;8.830;2022-08-04T14:59:23;39.90;99.90
2030;DHT22;1020;48.854;8.830;2022-08-04T15:01:51;39.70;99.90
2030;DHT22;1020;48.854;8.830;2022-08-04T15:04:21;40.00;99.90
2030;DHT22;1020;48.854;8.830;2022-08-04T15:06:49;40.00;99.90
2030;DHT22;1020;48.854;8.830;2022-08-04T15:09:17;40.20;99.90
2030;DHT22;1020;48.854;8.830;2022-08-04T15:11:46;39.80;99.90
2030;DHT22;1020;48.854;8.830;2022-08-04T15:14:13;39.40;99.90
2030;DHT22;1020;48.854;8.830;2022-08-04T15:16:40;39.40;99.90
2030;DHT22;1020;48.854;8.830;2022-08-04T15:19:07;38.60;99.90
2030;DHT22;1020;48.854;8.830;2022-08-04T15:21:36;38.90;99.90
2030;DHT22;1020;48.854;8.830;2022-08-04T15:24:03;39.10;99.90
2030;DHT22;1020;48.854;8.830;2022-08-04T15:26:34;39.50;99.90
2030;DHT22;1020;48.854;8.830;2022-08-04T15:29:07;40.00;99.90
2030;DHT22;1020;48.854;8.830;2022-08-04T15:31:37;40.30;99.90
2030;DHT22;1020;48.854;8.830;2022-08-04T15:34:06;40.60;99.90
2030;DHT22;1020;48.854;8.830;2022-08-04T15:36:47;39.60;99.90
2030;DHT22;1020;48.854;8.830;2022-08-04T15:39:24;40.80;99.90
2030;DHT22;1020;48.854;8.830;2022-08-04T15:41:57;38.20;99.90
2030;DHT22;1020;48.854;8.830;2022-08-04T15:47:17;39.00;99.90
2030;DHT22;1020;48.854;8.830;2022-08-04T15:49:45;38.70;99.90
2030;DHT22;1020;48.854;8.830;2022-08-04T15:52:29;38.90;99.90
2030;DHT22;1020;48.854;8.830;2022-08-04T15:55:35;38.80;99.90
2030;DHT22;1020;48.854;8.830;2022-08-04T15:58:04;38.60;99.90
2030;DHT22;1020;48.854;8.830;2022-08-04T16:03:43;38.40;99.90
2030;DHT22;1020;48.854;8.830;2022-08-04T16:06:40;38.00;99.90
2030;DHT22;1020;48.854;8.830;2022-08-04T16:09:23;37.80;99.90
2030;DHT22;1020;48.854;8.830;2022-08-04T16:11:51;37.40;99.90
2030;DHT22;1020;48.854;8.830;2022-08-04T16:14:30;37.20;99.90
2030;DHT22;1020;48.854;8.830;2022-08-04T16:17:14;37.10;99.90
2030;DHT22;1020;48.854;8.830;2022-08-04T16:19:53;37.00;99.90
2030;DHT22;1020;48.854;8.830;2022-08-04T16:22:33;37.10;99.90
2030;DHT22;1020;48.854;8.830;2022-08-04T16:25:02;37.00;99.90
2030;DHT22;1020;48.854;8.830;2022-08-04T16:27:39;37.10;99.90
2030;DHT22;1020;48.854;8.830;2022-08-04T16:30:07;37.00;99.90
2030;DHT22;1020;48.854;8.830;2022-08-04T16:32:42;37.10;99.90
2030;DHT22;1020;48.854;8.830;2022-08-04T16:35:25;37.20;99.90
2030;DHT22;1020;48.854;8.830;2022-08-04T16:38:10;37.30;99.90
2030;DHT22;1020;48.854;8.830;2022-08-04T16:40:40;37.50;99.90
2030;DHT22;1020;48.854;8.830;2022-08-04T16:43:12;37.50;99.90
2030;DHT22;1020;48.854;8.830;2022-08-04T16:45:50;37.70;99.90
2030;DHT22;1020;48.854;8.830;2022-08-04T16:48:19;37.70;99.90
2030;DHT22;1020;48.854;8.830;2022-08-04T16:50:49;37.70;99.90
2030;DHT22;1020;48.854;8.830;2022-08-04T16:53:17;37.90;99.90
2030;DHT22;1020;48.854;8.830;2022-08-04T16:55:50;38.00;99.90
2030;DHT22;1020;48.854;8.830;2022-08-04T16:58:24;38.10;99.90
2030;DHT22;1020;48.854;8.830;2022-08-04T17:00:52;38.30;99.90
2030;DHT22;1020;48.854;8.830;2022-08-04T17:03:20;38.10;99.90
2030;DHT22;1020;48.854;8.830;2022-08-04T17:05:47;38.00;99.90
2030;DHT22;1020;48.854;8.830;2022-08-04T17:08:15;38.20;99.90
2030;DHT22;1020;48.854;8.830;2022-08-04T17:10:46;38.10;99.90
2030;DHT22;1020;48.854;8.830;2022-08-04T17:13:23;39.20;99.90
2030;DHT22;1020;48.854;8.830;2022-08-04T17:15:51;38.30;99.90
2030;DHT22;1020;48.854;8.830;2022-08-04T17:18:20;38.50;99.90
2030;DHT22;1020;48.854;8.830;2022-08-04T17:20:48;38.50;99.90
2030;DHT22;1020;48.854;8.830;2022-08-04T17:23:23;38.50;99.90
2030;DHT22;1020;48.854;8.830;2022-08-04T17:25:51;38.50;99.90